Time;durP1;ratioP1;P1;durP2;ratioP2;P2;SDS_P1;SDS_P2;PMS_P1;PMS_P2;Temp;Humidity;BMP_temperature;BMP_pressure;BME280_temperature;BME280_humidity;BME280_pressure;Samples;Min_cycle;Max_cycle;Signal;HPM_P1;HPM_P2
2021/03/03 00:00:21;;;;;;;34.73;19.60;;;6.40;99.90;;;;;;5020064;28;20226;-80
2021/03/03 00:02:46;;;;;;;38.30;22.52;;;6.40;99.90;;;;;;5003000;28;20205;-81
2021/03/03 00:05:14;;;;;;;33.13;18.77;;;6.40;99.90;;;;;;5018605;28;20202;-81
2021/03/03 00:07:42;;;;;;;36.83;20.60;;;6.30;99.90;;;;;;5018902;28;20506;-81
2021/03/03 00:10:09;;;;;;;33.28;20.30;;;6.40;99.90;;;;;;5018619;28;20189;-81
2021/03/03 00:12:34;;;;;;;34.22;19.25;;;6.30;99.90;;;;;;5017075;28;20202;-81
2021/03/03 00:15:00;;;;;;;40.00;21.67;;;6.30;99.90;;;;;;5017100;28;20174;-80
2021/03/03 00:17:25;;;;;;;51.70;20.13;;;6.30;99.90;;;;;;5017826;28;20549;-80
2021/03/03 00:19:51;;;;;;;43.83;22.30;;;6.30;99.90;;;;;;5017431;28;20305;-80
2021/03/03 00:22:17;;;;;;;32.93;17.17;;;6.30;99.90;;;;;;5018906;28;20194;-80
2021/03/03 00:24:42;;;;;;;33.63;19.30;;;6.20;99.90;;;;;;5017750;28;20273;-80
2021/03/03 00:27:08;;;;;;;36.80;19.97;;;6.20;99.90;;;;;;5018165;28;20270;-80
2021/03/03 00:29:33;;;;;;;31.77;17.70;;;6.20;99.90;;;;;;5017499;28;20197;-79
2021/03/03 00:31:59;;;;;;;42.73;20.50;;;6.20;99.90;;;;;;5017028;28;20214;-82
2021/03/03 00:34:25;;;;;;;47.53;19.70;;;6.10;99.90;;;;;;5018730;28;20673;-81
2021/03/03 00:36:50;;;;;;;32.77;18.73;;;6.20;99.90;;;;;;5017459;28;20646;-80
2021/03/03 00:39:16;;;;;;;35.10;17.33;;;6.20;99.90;;;;;;4999909;28;20585;-80
2021/03/03 00:41:41;;;;;;;34.07;18.23;;;6.20;99.90;;;;;;5016139;28;20225;-82
2021/03/03 00:44:07;;;;;;;37.77;19.20;;;6.10;99.90;;;;;;4983913;28;20228;-81
2021/03/03 00:46:33;;;;;;;35.80;21.00;;;6.10;99.90;;;;;;5017533;28;20450;-80
2021/03/03 00:48:58;;;;;;;41.83;19.03;;;6.10;99.90;;;;;;5000562;28;20637;-80
2021/03/03 00:51:24;;;;;;;35.00;18.20;;;6.10;99.90;;;;;;5016149;28;20256;-80
2021/03/03 00:53:49;;;;;;;31.87;17.60;;;6.00;99.90;;;;;;5018750;28;20232;-80
2021/03/03 00:56:15;;;;;;;30.40;18.37;;;6.10;99.90;;;;;;5017847;28;20189;-80
2021/03/03 00:58:43;;;;;;;35.20;19.10;;;6.00;99.90;;;;;;5000670;28;20272;-81
2021/03/03 01:01:09;;;;;;;33.15;16.80;;;6.10;99.90;;;;;;5017693;28;20194;-81
2021/03/03 01:03:34;;;;;;;37.33;18.67;;;6.00;99.90;;;;;;4999836;28;20283;-81
2021/03/03 01:06:00;;;;;;;41.07;21.07;;;6.00;99.90;;;;;;5016026;28;20206;-81
2021/03/03 01:08:26;;;;;;;34.67;17.43;;;5.90;99.90;;;;;;4999331;28;20186;-81
2021/03/03 01:10:51;;;;;;;35.60;19.53;;;5.90;99.90;;;;;;5016568;28;20657;-80
2021/03/03 01:13:20;;;;;;;41.97;20.23;;;5.90;99.90;;;;;;5016644;28;20186;-79
2021/03/03 01:15:45;;;;;;;33.63;18.40;;;5.90;99.90;;;;;;5015876;28;20699;-82
2021/03/03 01:18:11;;;;;;;35.97;17.70;;;5.90;99.90;;;;;;5018393;28;20166;-80
2021/03/03 01:20:37;;;;;;;29.37;18.50;;;5.80;99.90;;;;;;5016724;28;20281;-81
2021/03/03 01:23:05;;;;;;;32.17;17.57;;;5.80;99.90;;;;;;5017071;28;20257;-80
2021/03/03 01:25:34;;;;;;;40.75;19.55;;;5.70;99.90;;;;;;5016564;28;20198;-80
2021/03/03 01:28:00;;;;;;;35.17;19.10;;;5.80;99.90;;;;;;5018210;28;20252;-81
2021/03/03 01:30:25;;;;;;;25.33;16.67;;;5.80;99.90;;;;;;5016037;28;20174;-80
2021/03/03 01:32:51;;;;;;;35.47;19.87;;;5.70;99.90;;;;;;5017356;28;20172;-81
2021/03/03 01:35:19;;;;;;;33.47;19.40;;;5.70;99.90;;;;;;5016925;28;20185;-81
2021/03/03 01:37:47;;;;;;;34.25;17.65;;;5.60;99.90;;;;;;5016472;28;20178;-81
2021/03/03 01:40:13;;;;;;;28.42;18.48;;;5.60;99.90;;;;;;5015979;28;20257;-81
2021/03/03 01:42:39;;;;;;;33.42;18.70;;;5.60;99.90;;;;;;5017000;28;20213;-81
2021/03/03 01:45:06;;;;;;;32.17;20.60;;;5.60;99.90;;;;;;5017806;28;20229;-81
2021/03/03 01:47:31;;;;;;;26.60;17.15;;;5.40;99.90;;;;;;5018740;28;20174;-80
2021/03/03 01:49:57;;;;;;;28.80;18.03;;;5.50;99.90;;;;;;5016258;28;20174;-79
2021/03/03 01:52:23;;;;;;;38.17;19.03;;;5.50;99.90;;;;;;5015021;28;20200;-81
2021/03/03 01:54:49;;;;;;;33.22;17.10;;;5.50;99.90;;;;;;5015118;28;20182;-80
2021/03/03 01:57:14;;;;;;;31.50;17.93;;;5.50;99.90;;;;;;5014567;28;20182;-81
2021/03/03 01:59:40;;;;;;;25.60;17.27;;;5.50;99.90;;;;;;5014749;28;20166;-81
2021/03/03 02:02:06;;;;;;;27.70;15.67;;;5.20;99.90;;;;;;4998534;28;20198;-81
2021/03/03 02:04:33;;;;;;;28.80;17.95;;;5.30;99.90;;;;;;4998699;28;20294;-81
2021/03/03 02:07:25;;;;;;;36.25;20.00;;;5.40;99.90;;;;;;5016714;28;20261;-81
2021/03/03 02:10:02;;;;;;;38.17;19.58;;;5.20;99.90;;;;;;5015116;28;20181;-81
2021/03/03 02:12:36;;;;;;;31.60;18.50;;;4.50;99.90;;;;;;5014343;28;20233;-79
2021/03/03 02:15:06;;;;;;;30.65;17.58;;;4.50;99.90;;;;;;5017140;28;20176;-81
2021/03/03 02:17:32;;;;;;;37.20;18.80;;;4.60;99.90;;;;;;5017007;28;20238;-81
2021/03/03 02:20:02;;;;;;;34.97;16.40;;;4.90;99.90;;;;;;5016540;28;20646;-81
2021/03/03 02:22:40;;;;;;;30.73;15.93;;;5.00;99.90;;;;;;5016769;28;20607;-81
2021/03/03 02:25:30;;;;;;;25.58;15.88;;;5.10;99.90;;;;;;5014944;28;20894;-80
2021/03/03 02:28:03;;;;;;;26.05;15.55;;;5.20;99.90;;;;;;5015111;28;20184;-81
2021/03/03 02:30:29;;;;;;;27.40;17.15;;;5.30;99.90;;;;;;5015076;28;20174;-81
2021/03/03 02:32:56;;;;;;;27.77;16.17;;;5.30;99.90;;;;;;5016552;28;20686;-80
2021/03/03 02:35:23;;;;;;;28.98;17.08;;;5.20;99.90;;;;;;5016227;28;20673;-80
2021/03/03 02:37:52;;;;;;;35.00;16.23;;;5.20;99.90;;;;;;5017662;28;20660;-79
2021/03/03 02:40:18;;;;;;;22.30;13.43;;;5.20;99.90;;;;;;5018370;28;20240;-80
2021/03/03 02:42:47;;;;;;;27.15;14.40;;;5.20;99.90;;;;;;5018839;28;20178;-81
2021/03/03 02:45:20;;;;;;;48.42;15.50;;;5.20;99.90;;;;;;5019678;28;20220;-80
2021/03/03 02:47:47;;;;;;;27.55;15.95;;;5.20;99.90;;;;;;5018703;28;20257;-80
2021/03/03 02:50:13;;;;;;;31.98;14.25;;;5.20;99.90;;;;;;5018592;28;20174;-82
2021/03/03 02:52:54;;;;;;;34.10;16.80;;;5.10;99.90;;;;;;5020020;28;20180;-80
2021/03/03 02:55:21;;;;;;;38.15;15.82;;;5.00;99.90;;;;;;5002063;28;20264;-80
2021/03/03 02:57:47;;;;;;;28.77;14.40;;;5.00;99.90;;;;;;5018571;28;20166;-82
2021/03/03 03:00:26;;;;;;;27.90;14.53;;;4.80;99.90;;;;;;5018241;28;20181;-80
2021/03/03 03:03:26;;;;;;;29.52;14.60;;;4.60;99.90;;;;;;5018211;28;20824;-80
2021/03/03 03:06:05;;;;;;;25.92;13.80;;;4.50;99.90;;;;;;5017995;28;20248;-80
2021/03/03 03:08:32;;;;;;;31.08;15.40;;;4.20;99.90;;;;;;5019335;28;20174;-81
2021/03/03 03:11:00;;;;;;;32.22;16.85;;;4.50;99.90;;;;;;5017274;28;20190;-80
2021/03/03 03:13:28;;;;;;;24.77;13.90;;;4.70;99.90;;;;;;5018015;28;20245;-81
2021/03/03 03:15:55;;;;;;;27.73;14.63;;;4.80;99.90;;;;;;5018942;28;20174;-80
2021/03/03 03:18:49;;;;;;;27.50;13.60;;;4.80;99.90;;;;;;5017449;28;20178;-81
2021/03/03 03:21:16;;;;;;;27.52;13.20;;;5.00;99.90;;;;;;5017074;28;20214;-80
2021/03/03 03:23:44;;;;;;;27.88;14.35;;;5.10;99.90;;;;;;5017192;28;20200;-81
2021/03/03 03:26:10;;;;;;;25.67;14.60;;;5.10;99.90;;;;;;5016552;28;20575;-80
2021/03/03 03:28:40;;;;;;;23.98;13.30;;;5.10;99.90;;;;;;5018063;28;20200;-81
2021/03/03 03:31:07;;;;;;;21.80;12.63;;;5.10;99.90;;;;;;4999830;28;20202;-79
2021/03/03 03:33:32;;;;;;;25.02;12.45;;;5.10;99.90;;;;;;5019899;28;20181;-80
2021/03/03 03:36:00;;;;;;;31.93;15.60;;;5.00;99.90;;;;;;5018790;28;20677;-81
2021/03/03 03:38:29;;;;;;;23.35;12.68;;;5.00;99.90;;;;;;5018969;28;20237;-81
2021/03/03 03:40:57;;;;;;;27.63;13.23;;;5.00;99.90;;;;;;5018185;28;20205;-82
2021/03/03 03:43:24;;;;;;;32.10;14.82;;;5.00;99.90;;;;;;5001030;28;20181;-81
2021/03/03 03:45:50;;;;;;;26.30;13.68;;;4.90;99.90;;;;;;5019594;28;20198;-81
2021/03/03 03:48:19;;;;;;;25.10;13.40;;;4.90;99.90;;;;;;5018453;28;20518;-82
2021/03/03 03:50:45;;;;;;;25.80;12.75;;;4.90;99.90;;;;;;5018199;28;20201;-81
2021/03/03 03:53:11;;;;;;;28.27;12.98;;;4.80;99.90;;;;;;5019782;28;20162;-82
2021/03/03 03:55:37;;;;;;;25.00;13.13;;;4.80;99.90;;;;;;5018339;28;20192;-81
2021/03/03 03:58:04;;;;;;;26.75;13.45;;;4.70;99.90;;;;;;5019966;28;20808;-81
2021/03/03 04:00:31;;;;;;;25.38;12.13;;;4.70;99.90;;;;;;5017772;28;20233;-81
2021/03/03 04:02:57;;;;;;;30.38;14.88;;;4.70;99.90;;;;;;5019357;28;20182;-81
2021/03/03 04:05:23;;;;;;;27.38;12.82;;;4.70;99.90;;;;;;5017255;28;20209;-81
2021/03/03 04:07:49;;;;;;;34.37;13.00;;;4.70;99.90;;;;;;5017505;28;20641;-81
2021/03/03 04:10:17;;;;;;;16.80;12.38;;;4.70;99.90;;;;;;5018513;28;20253;-81
2021/03/03 04:12:43;;;;;;;24.67;13.43;;;4.70;99.90;;;;;;5018547;28;20599;-80
2021/03/03 04:15:09;;;;;;;19.77;12.30;;;4.70;99.90;;;;;;5017537;28;20209;-81
2021/03/03 04:17:37;;;;;;;28.38;12.68;;;4.60;99.90;;;;;;5015927;28;20795;-79
2021/03/03 04:20:04;;;;;;;27.48;12.88;;;4.60;99.90;;;;;;5016040;28;20205;-81
2021/03/03 04:22:30;;;;;;;22.98;12.68;;;4.60;99.90;;;;;;5017585;28;20190;-81
2021/03/03 04:24:55;;;;;;;28.63;14.43;;;4.50;99.90;;;;;;5017912;28;20759;-81
2021/03/03 04:27:21;;;;;;;27.10;14.10;;;4.50;99.90;;;;;;5017756;28;20174;-81
2021/03/03 04:29:46;;;;;;;35.07;14.97;;;4.50;99.90;;;;;;5002270;28;20254;-81
2021/03/03 04:32:12;;;;;;;30.20;15.07;;;4.50;99.90;;;;;;5017669;28;20194;-81
2021/03/03 04:34:37;;;;;;;35.60;15.53;;;4.50;99.90;;;;;;5015295;28;20556;-80
2021/03/03 04:37:03;;;;;;;29.03;15.97;;;4.50;99.90;;;;;;5016149;28;20179;-82
2021/03/03 04:39:29;;;;;;;25.90;14.83;;;4.50;99.90;;;;;;5016939;28;20178;-81
2021/03/03 04:41:54;;;;;;;18.53;13.90;;;4.50;99.90;;;;;;5016220;28;20210;-80
2021/03/03 04:44:20;;;;;;;23.83;13.63;;;4.40;99.90;;;;;;5016164;28;20550;-81
2021/03/03 04:46:45;;;;;;;25.07;14.63;;;4.40;99.90;;;;;;5017162;28;20201;-80
2021/03/03 04:49:11;;;;;;;25.93;13.23;;;4.40;99.90;;;;;;4999572;28;20185;-80
2021/03/03 04:51:36;;;;;;;34.47;15.43;;;4.40;99.90;;;;;;5015627;28;20285;-79
2021/03/03 04:54:05;;;;;;;22.77;13.00;;;4.40;99.90;;;;;;5015906;28;20189;-81
2021/03/03 04:56:31;;;;;;;21.70;12.63;;;4.40;99.90;;;;;;5000076;28;20185;-81
2021/03/03 04:58:56;;;;;;;28.67;15.03;;;4.40;99.90;;;;;;5014708;28;20179;-81
2021/03/03 05:01:22;;;;;;;33.20;14.90;;;4.40;99.90;;;;;;5014373;28;20276;-81
2021/03/03 05:03:47;;;;;;;25.97;13.40;;;4.20;99.90;;;;;;5014209;28;20174;-81
2021/03/03 05:06:13;;;;;;;22.47;12.33;;;4.30;99.90;;;;;;5014109;28;20202;-81
2021/03/03 05:08:38;;;;;;;28.83;13.40;;;4.30;99.90;;;;;;5016158;28;20174;-81
2021/03/03 05:11:04;;;;;;;26.20;13.50;;;4.30;99.90;;;;;;4997848;28;20256;-82
2021/03/03 05:13:31;;;;;;;25.00;13.30;;;4.20;99.90;;;;;;5013823;28;20604;-81
2021/03/03 05:15:58;;;;;;;24.35;12.00;;;4.30;99.90;;;;;;5015703;28;20652;-81
2021/03/03 05:18:23;;;;;;;18.80;11.52;;;4.20;99.90;;;;;;5016387;28;20194;-82
2021/03/03 05:20:50;;;;;;;26.37;13.23;;;4.30;99.90;;;;;;5020320;28;20586;-81
2021/03/03 05:23:29;;;;;;;25.10;11.52;;;4.20;99.90;;;;;;5022091;28;20273;-81
2021/03/03 05:25:55;;;;;;;24.50;12.88;;;4.30;99.90;;;;;;5033044;28;20287;-81
2021/03/03 05:28:20;;;;;;;22.10;11.80;;;4.30;99.90;;;;;;5015844;28;20261;-81
2021/03/03 05:30:46;;;;;;;23.97;11.87;;;4.20;99.90;;;;;;5014665;28;20256;-81
2021/03/03 05:33:12;;;;;;;17.87;11.10;;;4.20;99.90;;;;;;5016433;28;20240;-82
2021/03/03 05:35:40;;;;;;;23.87;11.37;;;4.20;99.90;;;;;;4998389;28;20186;-81
2021/03/03 05:38:06;;;;;;;21.33;10.98;;;4.20;99.90;;;;;;5016281;28;20170;-81
2021/03/03 05:40:31;;;;;;;22.10;12.50;;;4.20;99.90;;;;;;4998332;28;20667;-82
2021/03/03 05:42:57;;;;;;;23.00;10.93;;;4.20;99.90;;;;;;5016568;28;20197;-82
2021/03/03 05:45:22;;;;;;;22.83;12.53;;;4.20;99.90;;;;;;4998146;28;20229;-80
2021/03/03 05:47:52;;;;;;;24.57;10.93;;;4.10;99.90;;;;;;4998642;28;20308;-81
2021/03/03 05:50:21;;;;;;;16.00;10.27;;;4.20;99.90;;;;;;4998843;28;20178;-80
2021/03/03 05:52:48;;;;;;;24.60;10.88;;;4.20;99.90;;;;;;5014364;28;20177;-80
2021/03/03 05:55:14;;;;;;;28.83;11.80;;;4.20;99.90;;;;;;5015395;28;20692;-80
2021/03/03 05:57:41;;;;;;;26.02;12.23;;;4.20;99.90;;;;;;5016221;28;20301;-81
2021/03/03 06:00:07;;;;;;;17.40;10.45;;;4.20;99.90;;;;;;4998393;28;20189;-80
2021/03/03 06:02:35;;;;;;;33.08;12.95;;;4.20;99.90;;;;;;5014192;28;20551;-81
2021/03/03 06:05:01;;;;;;;22.40;11.80;;;4.20;99.90;;;;;;5013885;28;20198;-80
2021/03/03 06:07:28;;;;;;;22.73;13.27;;;4.20;99.90;;;;;;5013059;28;20184;-80
2021/03/03 06:09:53;;;;;;;18.88;11.30;;;4.20;99.90;;;;;;5014884;28;20170;-80
2021/03/03 06:12:19;;;;;;;24.77;12.37;;;4.20;99.90;;;;;;5013264;28;20212;-81
2021/03/03 06:14:44;;;;;;;23.07;12.23;;;4.20;99.90;;;;;;5013541;28;20268;-83
2021/03/03 06:17:10;;;;;;;35.80;13.07;;;4.10;99.90;;;;;;5016149;28;20549;-82
2021/03/03 06:19:36;;;;;;;19.83;12.80;;;4.20;99.90;;;;;;5013972;28;20324;-82
2021/03/03 06:22:27;;;;;;;26.40;13.40;;;4.30;99.90;;;;;;4997077;28;20202;-81
2021/03/03 06:24:57;;;;;;;23.13;13.65;;;4.10;99.90;;;;;;5011119;28;20336;-83
2021/03/03 06:27:23;;;;;;;22.23;11.52;;;4.60;99.90;;;;;;5003287;28;20186;-83
2021/03/03 06:30:12;;;;;;;30.08;12.48;;;4.70;99.90;;;;;;4995765;28;20175;-83
2021/03/03 06:32:58;;;;;;;26.10;14.43;;;4.70;99.90;;;;;;5003703;28;20193;-83
2021/03/03 06:35:35;;;;;;;23.38;13.98;;;4.80;99.90;;;;;;4995718;28;20222;-82
2021/03/03 06:38:01;;;;;;;30.17;14.55;;;4.70;99.90;;;;;;4998890;28;20198;-84
2021/03/03 06:40:26;;;;;;;23.20;12.75;;;4.80;99.90;;;;;;4995047;28;20170;-83
2021/03/03 06:42:52;;;;;;;25.93;14.03;;;4.80;99.90;;;;;;4997170;28;20237;-84
2021/03/03 06:45:31;;;;;;;29.40;16.10;;;4.80;99.90;;;;;;5006254;28;20969;-82
2021/03/03 06:47:58;;;;;;;23.83;13.60;;;4.90;99.90;;;;;;5020240;28;20440;-83
2021/03/03 06:50:34;;;;;;;26.70;14.93;;;4.80;99.90;;;;;;5009159;28;20214;-82
2021/03/03 06:53:00;;;;;;;34.85;15.38;;;4.90;99.90;;;;;;5011160;28;20245;-81
2021/03/03 06:55:46;;;;;;;26.50;16.50;;;4.90;99.90;;;;;;5017821;28;20224;-82
2021/03/03 06:58:30;;;;;;;31.83;14.77;;;4.90;99.90;;;;;;5021102;28;20174;-81
2021/03/03 07:00:57;;;;;;;24.33;13.68;;;4.80;99.90;;;;;;5011953;28;20689;-81
2021/03/03 07:03:29;;;;;;;22.10;14.45;;;5.00;99.90;;;;;;5001831;28;20177;-81
2021/03/03 07:05:58;;;;;;;26.73;16.27;;;5.00;99.90;;;;;;4996142;28;20294;-82
2021/03/03 07:08:24;;;;;;;25.77;15.10;;;5.20;99.90;;;;;;4995674;28;20171;-80
2021/03/03 07:10:49;;;;;;;29.87;16.23;;;5.30;99.90;;;;;;4998098;28;20209;-81
2021/03/03 07:13:16;;;;;;;30.97;15.60;;;5.40;99.90;;;;;;5010258;28;20449;-81
2021/03/03 07:15:44;;;;;;;23.80;15.10;;;5.40;99.90;;;;;;5002062;28;20689;-82
2021/03/03 07:18:33;;;;;;;24.98;15.13;;;5.40;99.90;;;;;;5015913;28;20174;-81
2021/03/03 07:20:59;;;;;;;29.10;15.32;;;5.40;99.90;;;;;;5007420;28;20195;-80
2021/03/03 07:23:48;;;;;;;32.05;17.08;;;5.40;99.90;;;;;;5005028;28;20194;-81
2021/03/03 07:26:16;;;;;;;27.90;16.00;;;5.30;99.90;;;;;;5002558;28;20199;-82
2021/03/03 07:28:42;;;;;;;26.35;15.30;;;5.30;99.90;;;;;;4999967;28;20253;-81
2021/03/03 07:31:10;;;;;;;25.73;14.02;;;5.20;99.90;;;;;;5011267;28;20191;-81
2021/03/03 07:33:36;;;;;;;27.95;16.05;;;5.20;99.90;;;;;;5009224;28;20182;-81
2021/03/03 07:36:04;;;;;;;28.07;15.73;;;5.20;99.90;;;;;;4999081;28;20277;-81
2021/03/03 07:38:33;;;;;;;34.10;16.33;;;5.20;99.90;;;;;;4998246;28;20425;-81
2021/03/03 07:41:09;;;;;;;29.30;15.40;;;5.30;99.90;;;;;;4997431;28;20214;-83
2021/03/03 07:43:35;;;;;;;31.40;15.90;;;5.20;99.90;;;;;;5003837;28;20247;-82
2021/03/03 07:46:08;;;;;;;32.13;16.73;;;5.20;99.90;;;;;;5016452;28;20206;-81
2021/03/03 07:48:39;;;;;;;24.23;16.08;;;5.30;99.90;;;;;;5012107;28;20209;-82
2021/03/03 07:51:07;;;;;;;31.63;16.90;;;5.30;99.90;;;;;;4996340;28;20206;-82
2021/03/03 07:53:38;;;;;;;33.95;17.08;;;5.30;99.90;;;;;;4998119;28;20179;-82
2021/03/03 07:56:08;;;;;;;40.25;18.00;;;5.40;99.90;;;;;;4991864;28;20185;-82
2021/03/03 07:58:36;;;;;;;24.27;14.30;;;5.30;99.90;;;;;;5019505;28;20201;-81
2021/03/03 08:01:03;;;;;;;34.95;16.40;;;5.40;99.90;;;;;;5020835;28;20202;-82
2021/03/03 08:03:46;;;;;;;30.63;14.50;;;5.40;99.90;;;;;;5029002;28;20269;-82
2021/03/03 08:06:20;;;;;;;36.08;16.50;;;5.40;99.90;;;;;;5015512;28;20279;-84
2021/03/03 08:09:08;;;;;;;29.48;16.30;;;5.50;99.90;;;;;;5016137;28;20177;-84
2021/03/03 08:11:39;;;;;;;37.45;15.10;;;5.50;99.90;;;;;;4998197;28;20547;-84
2021/03/03 08:14:33;;;;;;;34.88;15.40;;;5.50;99.90;;;;;;5016936;28;20197;-83
2021/03/03 08:17:02;;;;;;;33.13;15.55;;;5.50;99.90;;;;;;4991114;28;20187;-81
2021/03/03 08:20:01;;;;;;;34.58;17.27;;;5.60;99.90;;;;;;5004449;28;20193;-81
2021/03/03 08:22:50;;;;;;;35.92;17.67;;;5.70;99.90;;;;;;4973235;28;20233;-79
2021/03/03 08:25:46;;;;;;;25.58;14.52;;;5.70;99.90;;;;;;5012183;28;20201;-79
2021/03/03 08:28:31;;;;;;;35.58;16.20;;;5.70;99.90;;;;;;4993778;28;20202;-79
2021/03/03 08:31:11;;;;;;;28.33;15.52;;;5.80;99.90;;;;;;4997668;28;20226;-80
2021/03/03 08:33:49;;;;;;;42.88;16.70;;;5.90;99.90;;;;;;4997499;28;20186;-83
2021/03/03 08:36:25;;;;;;;30.13;15.60;;;6.00;99.90;;;;;;5008492;28;20269;-82
2021/03/03 08:38:53;;;;;;;32.42;16.25;;;6.00;99.90;;;;;;5017553;28;20170;-82
2021/03/03 08:41:19;;;;;;;29.25;15.15;;;6.10;99.90;;;;;;5016352;28;20202;-83
2021/03/03 08:43:46;;;;;;;26.83;17.43;;;6.20;99.90;;;;;;5016205;28;20292;-80
2021/03/03 08:46:17;;;;;;;38.53;17.33;;;6.30;99.90;;;;;;5016453;28;20280;-80
2021/03/03 08:48:44;;;;;;;26.00;15.90;;;6.40;99.90;;;;;;5014922;28;20170;-80
2021/03/03 08:51:29;;;;;;;30.23;15.32;;;6.50;99.90;;;;;;5016511;28;20190;-82
2021/03/03 08:53:57;;;;;;;35.53;17.60;;;6.50;99.90;;;;;;5019294;28;20645;-81
2021/03/03 08:56:39;;;;;;;35.83;17.40;;;6.50;99.90;;;;;;5022092;28;20171;-82
2021/03/03 08:59:05;;;;;;;28.92;17.58;;;6.50;99.90;;;;;;5016066;28;20181;-81
2021/03/03 09:01:57;;;;;;;35.25;18.92;;;6.60;99.90;;;;;;5016714;28;20230;-81
2021/03/03 09:04:38;;;;;;;27.13;16.15;;;6.70;99.90;;;;;;5018214;28;20182;-81
2021/03/03 09:07:06;;;;;;;32.67;17.77;;;6.80;99.90;;;;;;5016311;28;20181;-81
2021/03/03 09:09:52;;;;;;;38.95;19.48;;;6.80;99.90;;;;;;5016611;28;20173;-82
2021/03/03 09:12:29;;;;;;;32.00;17.10;;;6.90;99.90;;;;;;5015515;28;20280;-82
2021/03/03 09:14:58;;;;;;;37.72;18.60;;;7.00;99.90;;;;;;5017149;28;20213;-82
2021/03/03 09:17:36;;;;;;;28.95;17.20;;;7.10;99.90;;;;;;5017321;28;20238;-83
2021/03/03 09:20:25;;;;;;;40.20;18.70;;;7.10;99.90;;;;;;5017490;28;20258;-82
2021/03/03 09:22:50;;;;;;;41.28;20.38;;;7.20;99.90;;;;;;5017523;28;20196;-82
2021/03/03 09:25:20;;;;;;;30.53;18.10;;;7.20;99.90;;;;;;5019286;28;20288;-80
2021/03/03 09:27:51;;;;;;;29.13;18.50;;;7.30;99.90;;;;;;5001142;28;20411;-80
2021/03/03 09:30:22;;;;;;;30.95;16.92;;;7.40;99.90;;;;;;5014865;28;20173;-82
2021/03/03 09:32:48;;;;;;;42.28;19.55;;;7.60;99.90;;;;;;5001496;28;20185;-80
2021/03/03 09:35:26;;;;;;;35.75;18.30;;;7.70;99.90;;;;;;5014598;28;20178;-82
2021/03/03 09:37:52;;;;;;;29.05;16.60;;;7.80;99.90;;;;;;5017151;28;20661;-82
2021/03/03 09:40:18;;;;;;;43.97;18.90;;;7.90;99.90;;;;;;5017869;28;20209;-81
2021/03/03 09:42:49;;;;;;;34.78;19.70;;;8.00;99.90;;;;;;4984959;28;20429;-83
2021/03/03 09:45:23;;;;;;;36.95;18.75;;;8.10;99.90;;;;;;5017888;28;20732;-82
2021/03/03 09:47:55;;;;;;;37.45;19.30;;;8.10;99.90;;;;;;5021555;28;20177;-82
2021/03/03 09:50:23;;;;;;;31.88;18.27;;;8.20;99.90;;;;;;5021211;28;20185;-82
2021/03/03 09:52:55;;;;;;;35.08;18.90;;;8.20;99.90;;;;;;5021298;28;20653;-81
2021/03/03 09:55:25;;;;;;;28.55;16.33;;;8.30;99.90;;;;;;5018410;28;20196;-81
2021/03/03 09:57:53;;;;;;;30.25;17.58;;;8.40;99.90;;;;;;5019154;28;20170;-81
2021/03/03 10:00:26;;;;;;;27.38;15.80;;;8.50;99.90;;;;;;5019186;28;20257;-81
2021/03/03 10:03:01;;;;;;;44.38;19.00;;;8.50;99.90;;;;;;5017121;28;20178;-83
2021/03/03 10:05:32;;;;;;;29.92;17.90;;;8.60;99.90;;;;;;5018653;28;20189;-82
2021/03/03 10:08:12;;;;;;;31.90;16.23;;;8.70;99.90;;;;;;5019422;28;20178;-83
2021/03/03 10:10:53;;;;;;;34.72;19.40;;;8.70;99.90;;;;;;5016671;28;20204;-82
2021/03/03 10:13:22;;;;;;;38.10;19.00;;;8.80;99.90;;;;;;5019244;28;20188;-84
2021/03/03 10:15:48;;;;;;;34.20;17.45;;;8.80;99.90;;;;;;5014953;28;20269;-82
2021/03/03 10:18:13;;;;;;;31.77;17.98;;;8.90;99.90;;;;;;5013874;28;20192;-80
2021/03/03 10:20:41;;;;;;;29.20;17.67;;;9.00;99.90;;;;;;5013814;28;20705;-80
2021/03/03 10:23:11;;;;;;;36.30;16.98;;;9.00;99.90;;;;;;5016923;28;20170;-81
2021/03/03 10:25:41;;;;;;;36.15;17.98;;;9.00;99.90;;;;;;5016884;28;21142;-84
2021/03/03 10:28:16;;;;;;;34.70;17.33;;;9.00;99.90;;;;;;5016416;28;20714;-82
2021/03/03 10:30:47;;;;;;;32.08;16.75;;;9.00;99.90;;;;;;5014107;28;20198;-82
2021/03/03 10:33:33;;;;;;;38.53;18.10;;;9.10;99.90;;;;;;5016280;28;20166;-82
2021/03/03 10:36:21;;;;;;;33.85;17.60;;;9.20;99.90;;;;;;5020020;28;20166;-83
2021/03/03 10:38:56;;;;;;;31.83;16.38;;;9.20;99.90;;;;;;5003154;28;20221;-82
2021/03/03 10:41:25;;;;;;;39.00;20.13;;;9.30;99.90;;;;;;5016916;28;20203;-82
2021/03/03 10:43:52;;;;;;;37.70;18.70;;;9.30;99.90;;;;;;5004279;28;20186;-83
2021/03/03 10:46:19;;;;;;;41.45;16.33;;;9.40;99.90;;;;;;5007686;28;20689;-81
2021/03/03 10:48:48;;;;;;;34.25;18.20;;;9.50;99.90;;;;;;4998766;28;20186;-81
2021/03/03 10:51:17;;;;;;;35.60;17.35;;;9.50;99.90;;;;;;5008778;28;20242;-80
2021/03/03 10:53:59;;;;;;;30.50;17.60;;;9.50;99.90;;;;;;5015532;28;20217;-81
2021/03/03 10:56:27;;;;;;;26.77;16.50;;;9.60;99.90;;;;;;5011293;28;20170;-79
2021/03/03 10:58:56;;;;;;;28.08;17.00;;;9.60;99.90;;;;;;4998669;28;20262;-82
2021/03/03 11:01:23;;;;;;;32.78;17.42;;;9.70;99.90;;;;;;4986177;28;20194;-80
2021/03/03 11:03:52;;;;;;;31.77;17.02;;;9.70;99.90;;;;;;5020292;28;20814;-81
2021/03/03 11:06:18;;;;;;;37.70;16.65;;;9.90;99.90;;;;;;5016403;28;20202;-82
2021/03/03 11:08:44;;;;;;;27.90;15.90;;;9.90;99.90;;;;;;4998099;28;20171;-81
2021/03/03 11:11:09;;;;;;;40.83;18.47;;;10.00;99.90;;;;;;4999999;28;20201;-81
2021/03/03 11:13:36;;;;;;;34.03;18.10;;;10.00;99.90;;;;;;5012072;28;20653;-81
2021/03/03 11:16:03;;;;;;;32.50;18.30;;;10.10;99.90;;;;;;5019079;28;20213;-81
2021/03/03 11:18:34;;;;;;;33.13;18.17;;;10.20;99.90;;;;;;5020263;28;20440;-80
2021/03/03 11:21:00;;;;;;;30.73;18.17;;;10.30;99.90;;;;;;5015622;28;20542;-80
2021/03/03 11:23:30;;;;;;;33.25;18.55;;;10.30;99.90;;;;;;5022438;28;20561;-80
2021/03/03 11:25:57;;;;;;;35.22;18.00;;;10.40;99.90;;;;;;5024512;28;20204;-79
2021/03/03 11:28:29;;;;;;;34.47;18.00;;;10.50;99.90;;;;;;5019715;28;20708;-80
2021/03/03 11:31:01;;;;;;;45.13;19.05;;;10.50;99.90;;;;;;5006762;28;20226;-80
2021/03/03 11:33:28;;;;;;;29.20;16.80;;;10.50;99.90;;;;;;5013112;28;20673;-82
2021/03/03 11:35:54;;;;;;;31.83;17.25;;;10.50;99.90;;;;;;5032015;28;20238;-82
2021/03/03 11:38:22;;;;;;;28.80;15.43;;;10.60;99.90;;;;;;5020520;28;20199;-82
2021/03/03 11:40:54;;;;;;;32.47;16.48;;;10.70;99.90;;;;;;4998219;28;20230;-82
2021/03/03 11:43:20;;;;;;;32.50;17.35;;;10.80;99.90;;;;;;5009359;28;20658;-81
2021/03/03 11:45:45;;;;;;;31.57;18.17;;;10.80;99.90;;;;;;4999251;28;20203;-81
2021/03/03 11:48:11;;;;;;;30.37;17.53;;;10.90;99.90;;;;;;5006218;28;20181;-82
2021/03/03 11:50:36;;;;;;;34.67;18.70;;;10.90;99.90;;;;;;4999541;28;20194;-81
2021/03/03 11:53:02;;;;;;;36.00;18.80;;;11.00;99.90;;;;;;5015559;28;20269;-82
2021/03/03 11:55:28;;;;;;;28.20;15.70;;;11.00;99.90;;;;;;4985026;28;20237;-81
2021/03/03 11:57:53;;;;;;;30.13;16.93;;;11.10;99.90;;;;;;5012374;28;20232;-82
2021/03/03 12:00:19;;;;;;;36.77;19.13;;;11.10;99.90;;;;;;5007320;28;20214;-82
2021/03/03 12:02:45;;;;;;;44.20;16.80;;;11.10;99.90;;;;;;5018388;28;20190;-81
2021/03/03 12:05:11;;;;;;;28.63;16.80;;;11.20;99.90;;;;;;4993636;28;20210;-81
2021/03/03 12:07:36;;;;;;;29.30;17.50;;;11.30;99.90;;;;;;5011266;28;20182;-81
2021/03/03 12:10:04;;;;;;;28.43;14.80;;;11.40;99.90;;;;;;5002372;28;20917;-82
2021/03/03 12:12:29;;;;;;;36.83;16.55;;;11.40;99.90;;;;;;5016993;28;20198;-81
2021/03/03 12:14:55;;;;;;;29.07;15.43;;;11.50;99.90;;;;;;5000662;28;20313;-81
2021/03/03 12:17:20;;;;;;;28.87;16.97;;;11.50;99.90;;;;;;5005829;28;20182;-81
2021/03/03 12:19:46;;;;;;;29.63;15.17;;;11.50;99.90;;;;;;5004629;28;20178;-79
2021/03/03 12:22:12;;;;;;;25.67;16.53;;;11.60;99.90;;;;;;4999803;28;20212;-80
2021/03/03 12:24:37;;;;;;;25.90;15.27;;;11.60;99.90;;;;;;5018219;28;20204;-80
2021/03/03 12:27:03;;;;;;;29.27;16.17;;;11.70;99.90;;;;;;5004984;28;20175;-79
2021/03/03 12:29:29;;;;;;;30.33;15.53;;;11.70;99.90;;;;;;4987976;28;20214;-79
2021/03/03 12:31:56;;;;;;;30.50;16.50;;;11.70;99.90;;;;;;5014564;28;20444;-79
2021/03/03 12:34:21;;;;;;;26.05;14.98;;;11.80;99.90;;;;;;5015547;28;20174;-78
2021/03/03 12:36:47;;;;;;;40.17;16.87;;;11.90;99.90;;;;;;5015423;28;20182;-78
2021/03/03 12:39:13;;;;;;;30.80;16.43;;;12.00;99.90;;;;;;5017942;28;20641;-78
2021/03/03 12:41:38;;;;;;;27.23;15.27;;;12.00;99.90;;;;;;4997078;28;20673;-77
2021/03/03 12:44:07;;;;;;;27.23;15.27;;;12.00;99.90;;;;;;5006034;28;20177;-77
2021/03/03 12:46:32;;;;;;;28.70;16.27;;;12.00;99.90;;;;;;5001011;28;20195;-78